Terminal Aerodrome Forecast
Issued by NWS

Home | Current Version | Previous Version | Text Only | Print | Product List | Glossary Off
Versions: 1 2 3 4 5 6 7 8 9 10 11 12 13 14 15 16 17

000
FTUS43 KMPX 240520
TAFAXN
TAF
KAXN 240520Z 2406/2506 22011KT P6SM SCT200
     FM241400 28015G20KT P6SM -SHRA OVC080
     FM241700 31019G26KT P6SM SCT050
     FM250000 31015KT P6SM SKC=

USA.gov is the U.S. government's official web portal to all federal, state and local government web resources and services.